AirNav   Air Wisconsin Up To $57,000 Bonus
 
 1551 users online  

42A Melbourne Municipal Airport - John E Miller Field
Melbourne, Arkansas, USA

GOING TO MELBOURNE?


FAA INFORMATION EFFECTIVE 26 JANUARY 2023

Location

FAA Identifier: 42A
Lat/Long: 36-04-15.5290N 091-49-48.4880W
36-04.258817N 091-49.808133W
36.0709803,-91.8301356
(estimated)
Elevation: 734.8 ft. / 224.0 m (surveyed)
Variation: 01E (2005)
From city: 3 miles E of MELBOURNE, AR
Time zone: UTC -6 (UTC -5 during Daylight Saving Time)
Zip code: 72556

Airport Operations

Airport use: Open to the public
Activation date: 01/1994
Control tower: no
ARTCC: MEMPHIS CENTER
FSS: JONESBORO FLIGHT SERVICE STATION
NOTAMs facility: JBR (NOTAM-D service available)
Attendance: MON-SAT DAYLIGHT HOURS
Wind indicator: lighted
Segmented circle: yes
Lights: ACTVT MIRL RWY 03/21 & REIL RWY 03/21 - CTAF
Beacon: white-green (lighted land airport)
Operates sunset to sunrise.

Airport Communications

CTAF: 122.9
  • APCH/DEP SVC PRVDD BY MEMPHIS ARTCC ON FREQS 126.85/281.55 (HARRISON RCAG).

Airport Services

Fuel available: 100LL JET-A
100LL:SELF SERVE FUEL H24 WITH CREDIT CARD.
Parking: hangars and tiedowns
Airframe service: MAJOR
Powerplant service: MAJOR

Runway Information

Runway 3/21

Dimensions: 4003 x 75 ft. / 1220 x 23 m
150 FT PAVED STOPWAY EACH END - FULL STRENGTH.
Surface: asphalt, in good condition
Runway edge lights: medium intensity
RUNWAY 3  RUNWAY 21
Latitude: 36-03.978357N36-04.539282N
Longitude: 091-50.021917W091-49.594318W
Elevation: 734.8 ft.708.9 ft.
Traffic pattern: leftleft
Runway heading: 031 magnetic, 032 true211 magnetic, 212 true
Markings: nonprecision, in good conditionnonprecision, in good condition
Visual slope indicator: 2-light PAPI on left (3.00 degrees glide path)2-light PAPI on left (3.00 degrees glide path)
Runway end identifier lights: yesyes
Touchdown point: yes, no lightsyes, no lights
Obstructions: 42 ft. tree, 1800 ft. from runway, 465 ft. right of centerline, 38:1 slope to clear50 ft. tree, 1550 ft. from runway, 425 ft. left of centerline, 27:1 slope to clear

Airport Ownership and Management from official FAA records

Ownership: Publicly-owned
Owner: CITY OF MELBOURNE
PO BOX 800
MELBOURNE, AR 72556
Phone 870-368-4215
Manager: KEN CLARK
P.O. BOX 800
MELBOURNE, AR 72556
Phone (870) 291-1227

Airport Operational Statistics

Aircraft based on the field: 16
Single engine airplanes: 13
Multi engine airplanes: 3
    
Aircraft operations: avg 178/day *
92% local general aviation
8% transient general aviation
<1% military
* for 12-month period ending 31 January 2022

Additional Remarks

FOR CD CTC MEMPHIS ARTCC AT 901-368-8453/8449.

Instrument Procedures

NOTE: All procedures below are presented as PDF files. If you need a reader for these files, you should download the free Adobe Reader.

NOT FOR NAVIGATION. Please procure official charts for flight.
FAA instrument procedures published for use from 26 January 2023 at 0901Z to 23 February 2023 at 0900z.

 
IAPs - Instrument Approach Procedures
RNAV (GPS) RWY 03   download
RNAV (GPS) RWY 21   download
NOTE: Special Take-Off Minimums/Departure Procedures apply   download (391KB)

Other nearby airports with instrument procedures:

6M2 - Horseshoe Bend Airport (10 nm N)
KCVK - Sharp County Regional Airport (17 nm NE)
7M2 - Mountain View Airport-Wilcox Memorial Field (18 nm SW)
KBVX - Batesville Regional Airport (23 nm SE)
KHBZ - Heber Springs Municipal Airport (35 nm S)
 
Loc | Ops | Rwys | IFR | FBO | Links
Com | Nav | Svcs | Stats | Notes
Area around 42A (Melbourne Municipal Airport - John E Miller Field)
 
Road maps at: MapQuest Bing Google
 
Aerial photo
WARNING: Photo may not be current or correct
Aerial photo of 42A (Melbourne Municipal Airport - John E Miller Field)
Photo courtesy of the Arkansas Department of Aeronautics
Taken in the Spring of 2007

Do you have a better or more recent aerial photo of Melbourne Municipal Airport - John E Miller Field that you would like to share? If so, please send us your photo.

 
Sectional chart

 
Airport distance calculator
Flying to Melbourne Municipal Airport - John E Miller Field? Find the distance to fly.

From to 42A

Sunrise and sunset
Times for 08-Feb-2023
 Local
(UTC-6)
 Zulu
(UTC)
Morning civil twilight06:3612:36
Sunrise07:0313:03
Sunset17:4023:40
Evening civil twilight18:0700:07

Current date and time
Zulu (UTC)  08-Feb-2023 19:13:12
Local (UTC-6)  08-Feb-2023 13:13:12
 
METAR
KBVX 
23nm S 
081905Z AUTO 08005KT 4SM -RA BR BKN003 BKN009 OVC045 09/09 A3001 RMK AO2 P0002
KFLP 
33nm NW 
081856Z AUTO 08004KT 2 1/2SM +RA BR OVC003 08/08 A3001 RMK AO2 CIG 001V008 SLP162 P0020 T00780078
KBPK 
36nm NW 
081853Z AUTO 10005KT 4SM RA BR OVC004 07/07 A2999 RMK AO2 SLP157 P0021 T00720072
KM19 
41nm SE 
081856Z AUTO 07009KT 3SM +RA BR FEW017 BKN026 OVC032 10/09 A3004 RMK AO2 TSB1759E14 SLP170 P0050 T01000094
KCCA 
41nm SW 
081855Z AUTO 16005KT 1SM +RA SCT004 OVC009 10/10 A3001 RMK AO2 TSNO
KARG 
44nm E 
081856Z AUTO 07012KT 2 1/2SM RA BR OVC004 09/09 A3003 RMK AO2 SLP171 P0016 T00890089
TAF
KBPK 
36nm NW 
081720Z 0818/0918 11010KT 6SM -SHRA BR VCTS OVC005CB TEMPO 0818/0822 4SM -TSRA BR OVC004CB FM082200 11010KT 4SM -SHRA BR OVC005 FM090000 11010G16KT 3SM -SHRA BR OVC003 FM090400 16013G22KT 1SM -SHRA BR OVC003 WS005/18045KT FM090700 23018G28KT 5SM BR BKN008 OVC015 FM091100 27020G33KT 6SM BR BKN015 OVC030 FM091500 27020G33KT P6SM SCT015 BKN030 BKN250
NOTAMs
Click for the latest NOTAMs
NOTAMs are issued by the DoD/FAA and will open in a separate window not controlled by AirNav.

 

 
 

FBO, Fuel Providers, and Aircraft Ground Support

  
 Business Name 
 
 Contact 
 
 Services / Description 
 
Fuel Prices
 
Comments
  
Melbourne Municipal Airport 870-368-4215
no information available

If you are affiliated with Melbourne Municipal Airport and would like to show here your services, contact info, web link, logo, and more, click here
100LL Jet A
SS $5.30 $5.53 
 Updated 03-Feb-2023
 
   write
SS=Self service
Update Fuel Prices
 

Aviation Businesses, Services, and Facilities

  
 Business Name 
 
 Contact 
 
 Services / Description 
 
Distance
 
Comments
  
Emerson Air Service 870-368-4101
no information available

If you are affiliated with Emerson Air Service and would like to show here your services, contact info, web link, logo, and more, click here
on airport  
   write
 

Would you like to see your business listed on this page?

 If your business provides an interesting product or service to pilots, flight crews, aircraft, or users of the Melbourne Municipal Airport - John E Miller Field, you should consider listing it here.  To start the listing process, click on the button below
 
Add a business
 

Other Pages about Melbourne Municipal Airport - John E Miller Field

Update a link
 
Copyright © AirNav, LLC. All rights reserved. Privacy Policy  Contact